Time;durP1;ratioP1;P1;durP2;ratioP2;P2;SDS_P1;SDS_P2;PMS_P1;PMS_P2;Temp;Humidity;BMP_temperature;BMP_pressure;BME280_temperature;BME280_humidity;BME280_pressure;Samples;Min_cycle;Max_cycle;Signal;HPM_P1;HPM_P2
2023/03/01 00:13:31;;;;;;;49.70;21.70;;;;;;;2.31;62.06;101667.79;671896;1263;139409;-84
2023/03/01 00:28:35;;;;;;;37.90;16.20;;;;;;;2.40;62.08;101664.22;670940;1263;140191;-85
2023/03/01 00:43:38;;;;;;;41.20;18.80;;;;;;;2.53;62.19;101649.98;671040;1261;139230;-83
2023/03/01 00:58:42;;;;;;;63.90;21.80;;;;;;;2.56;62.05;101641.94;673613;1262;142405;-85
2023/03/01 01:13:46;;;;;;;46.40;20.20;;;;;;;2.35;62.18;101643.82;672017;1260;138945;-84
2023/03/01 01:28:50;;;;;;;33.00;14.10;;;;;;;2.31;62.22;101633.09;670829;1263;140610;-85
2023/03/01 01:44:14;;;;;;;49.20;20.80;;;;;;;2.32;62.55;101623.90;670771;1260;139345;-83
2023/03/01 01:59:17;;;;;;;41.80;16.70;;;;;;;2.27;62.62;101605.73;670106;1261;139102;-84
2023/03/01 02:14:21;;;;;;;43.30;16.60;;;;;;;2.37;62.72;101587.30;671582;1263;139126;-84
2023/03/01 02:29:25;;;;;;;47.60;16.50;;;;;;;2.41;62.60;101577.85;672051;1261;139112;-84
2023/03/01 02:44:28;;;;;;;29.30;13.60;;;;;;;2.35;62.50;101561.45;671884;1260;138997;-84
2023/03/01 02:59:39;;;;;;;35.50;13.40;;;;;;;2.41;63.19;101555.91;669817;1262;139182;-83
2023/03/01 03:14:43;;;;;;;31.40;13.30;;;;;;;2.61;63.40;101562.15;671724;1262;139121;-83
2023/03/01 03:29:47;;;;;;;27.60;13.00;;;;;;;2.76;63.07;101556.80;669565;1260;138736;-83
2023/03/01 03:44:50;;;;;;;22.40;11.30;;;;;;;2.55;64.28;101526.76;673020;1263;138945;-84
2023/03/01 03:59:53;;;;;;;29.10;12.50;;;;;;;2.39;65.00;101507.96;671670;1263;138991;-84
2023/03/01 04:14:56;;;;;;;26.40;13.10;;;;;;;2.32;65.50;101493.54;671131;1262;138169;-83
2023/03/01 04:29:59;;;;;;;35.90;13.30;;;;;;;2.34;65.38;101500.88;669494;1262;139184;-83
2023/03/01 04:45:12;;;;;;;33.50;15.10;;;;;;;2.35;64.87;101499.80;672188;1262;139554;-83
2023/03/01 05:00:22;;;;;;;41.50;16.80;;;;;;;2.17;65.66;101498.02;671179;1263;139519;-84
2023/03/01 05:15:30;;;;;;;38.30;16.50;;;;;;;1.93;66.26;101484.81;670618;1262;139415;-83
2023/03/01 05:30:34;;;;;;;41.80;18.00;;;;;;;1.85;67.05;101473.52;672620;1262;139880;-83
2023/03/01 05:45:39;;;;;;;37.60;18.80;;;;;;;2.00;66.64;101478.39;672760;1276;139416;-84
2023/03/01 06:00:45;;;;;;;41.80;17.10;;;;;;;2.11;67.32;101489.92;673367;1262;139873;-82
2023/03/01 06:15:48;;;;;;;42.80;18.90;;;;;;;2.07;67.61;101486.42;671554;1264;138873;-81
2023/03/01 06:30:52;;;;;;;120.10;46.80;;;;;;;2.26;67.44;101484.21;672782;1262;139278;-83
2023/03/01 06:45:55;;;;;;;106.20;50.30;;;;;;;2.63;67.23;101511.96;671254;1260;139611;-82
2023/03/01 07:00:59;;;;;;;58.10;25.10;;;;;;;3.05;66.97;101512.71;671362;1260;139410;-81
2023/03/01 07:16:03;;;;;;;71.80;27.30;;;;;;;3.14;67.01;101502.73;673070;1264;138802;-82
2023/03/01 07:31:06;;;;;;;110.70;34.20;;;;;;;3.40;67.14;101498.98;672017;1259;139949;-83
2023/03/01 07:46:10;;;;;;;61.60;26.40;;;;;;;3.84;66.96;101494.80;673912;1256;138765;-84
2023/03/01 08:01:17;;;;;;;67.80;28.30;;;;;;;4.67;66.48;101510.92;670846;1261;138940;-82
2023/03/01 08:16:23;;;;;;;45.40;21.60;;;;;;;5.66;65.83;101514.24;670535;1273;138904;-82
2023/03/01 08:31:36;;;;;;;81.30;35.90;;;;;;;6.30;64.96;101506.27;672067;1262;139005;-84
2023/03/01 08:46:41;;;;;;;33.60;17.30;;;;;;;7.04;64.20;101505.05;670230;1263;139884;-86
2023/03/01 09:01:45;;;;;;;34.20;17.90;;;;;;;7.77;63.34;101484.55;673707;1262;138762;-85
2023/03/01 09:16:48;;;;;;;42.00;19.90;;;;;;;8.26;62.57;101485.02;673968;1263;139415;-86
2023/03/01 09:31:54;;;;;;;40.20;18.20;;;;;;;9.05;61.93;101464.21;673171;1262;138932;-85
2023/03/01 09:47:00;;;;;;;42.60;19.60;;;;;;;9.99;60.89;101451.14;669926;1271;138872;-86
2023/03/01 10:02:11;;;;;;;28.30;15.60;;;;;;;10.53;59.55;101434.55;669385;1274;138881;-86
2023/03/01 10:18:03;;;;;;;166.20;74.00;;;;;;;11.35;58.68;101439.65;670153;1263;139425;-87
2023/03/01 10:33:17;;;;;;;55.00;28.30;;;;;;;12.02;57.65;101431.78;672502;1262;138715;-87
2023/03/01 10:48:25;;;;;;;121.50;54.40;;;;;;;12.58;56.77;101428.34;671406;1260;138808;-88
2023/03/01 11:03:31;;;;;;;;;;;;;;;12.77;55.45;101427.16;670919;1257;139269;-87
2023/03/01 11:18:35;;;;;;;32.80;19.60;;;;;;;12.76;54.43;101412.73;672480;1261;125057;-88
2023/03/01 11:34:01;;;;;;;29.00;15.10;;;;;;;13.55;54.20;101405.86;672259;1260;138445;-87
2023/03/01 11:49:14;;;;;;;52.70;23.70;;;;;;;14.36;53.67;101399.58;672462;1270;138466;-89
2023/03/01 12:04:23;;;;;;;33.90;15.90;;;;;;;14.50;52.80;101394.84;672442;1258;139375;-88
2023/03/01 12:19:33;;;;;;;17.80;10.60;;;;;;;15.16;53.41;101387.12;673275;1273;138877;-89
2023/03/01 12:34:55;;;;;;;31.60;17.80;;;;;;;15.67;51.92;101384.63;673856;1260;139475;-87
2023/03/01 13:04:02;;;;;;;22.80;12.10;;;;;;;16.38;50.93;101374.18;654501;1292;544827;-87
2023/03/01 13:19:20;;;;;;;18.40;11.80;;;;;;;16.72;49.68;101369.45;665743;1276;137905;-87
2023/03/01 13:34:43;;;;;;;17.50;10.00;;;;;;;17.66;50.14;101361.29;667643;1275;138516;-86
2023/03/01 13:50:00;;;;;;;25.80;14.30;;;;;;;20.62;48.40;101347.38;666483;1275;137843;-87
2023/03/01 14:05:09;;;;;;;33.50;19.40;;;;;;;26.98;41.46;101330.59;666383;1274;138569;-87
2023/03/01 14:20:18;;;;;;;37.20;20.40;;;;;;;28.99;38.33;101328.68;667469;1274;138279;-87
2023/03/01 14:35:28;;;;;;;26.40;14.60;;;;;;;29.54;37.02;101317.64;666490;1274;138845;-89
2023/03/01 14:50:34;;;;;;;19.80;11.10;;;;;;;30.33;35.89;101299.54;667786;1276;137702;-88
2023/03/01 15:05:39;;;;;;;108.90;57.00;;;;;;;29.75;35.40;101288.63;666277;1275;139134;-89
2023/03/01 15:20:44;;;;;;;78.90;53.90;;;;;;;26.09;36.92;101261.56;667262;1284;138332;-86
2023/03/01 15:35:52;;;;;;;123.20;77.60;;;;;;;20.18;41.45;101247.06;667106;1272;138142;-87
2023/03/01 15:50:59;;;;;;;88.50;40.00;;;;;;;21.21;43.14;101245.98;672306;1275;138908;-89
2023/03/01 16:06:02;;;;;;;125.70;51.70;;;;;;;22.84;41.35;101251.18;666652;1275;138692;-87
2023/03/01 16:21:06;;;;;;;150.50;68.60;;;;;;;18.98;42.73;101250.59;667732;1275;138477;-88
2023/03/01 16:36:11;;;;;;;139.90;71.10;;;;;;;14.70;46.22;101256.88;669485;1274;139109;-89
2023/03/01 16:51:16;;;;;;;164.10;89.40;;;;;;;12.39;49.05;101266.08;665719;1275;139410;-88
2023/03/01 17:06:23;;;;;;;165.40;74.30;;;;;;;10.73;51.21;101269.77;668753;1273;138698;-85
2023/03/01 17:21:27;;;;;;;457.50;156.40;;;;;;;9.71;53.01;101270.10;669789;1272;138054;-86
2023/03/01 17:36:33;;;;;;;643.60;232.30;;;;;;;8.89;54.80;101274.15;665775;1275;138828;-88
2023/03/01 17:51:37;;;;;;;279.20;112.50;;;;;;;8.38;56.24;101271.64;667655;1276;138279;-86
2023/03/01 18:06:43;;;;;;;263.70;104.00;;;;;;;7.85;56.80;101278.17;668131;1275;138559;-87
2023/03/01 18:21:53;;;;;;;314.40;119.70;;;;;;;7.48;57.64;101295.20;667522;1273;138324;-86
2023/03/01 18:36:57;;;;;;;130.00;56.60;;;;;;;7.13;57.97;101303.25;668758;1274;138530;-86
2023/03/01 18:52:11;;;;;;;543.60;230.10;;;;;;;6.63;58.33;101290.11;668149;1276;138523;-86
2023/03/01 19:07:16;;;;;;;492.00;210.50;;;;;;;6.29;59.60;101291.92;665895;1271;138564;-86
2023/03/01 19:22:20;;;;;;;517.20;224.50;;;;;;;6.15;59.89;101301.90;665064;1286;139051;-84
2023/03/01 19:37:24;;;;;;;647.60;296.10;;;;;;;5.78;60.01;101309.50;667914;1276;139311;-85
2023/03/01 19:52:29;;;;;;;503.00;218.50;;;;;;;5.44;60.30;101314.31;668106;1274;139562;-85
2023/03/01 20:07:34;;;;;;;287.90;121.30;;;;;;;5.27;61.29;101311.54;668309;1274;138823;-85
2023/03/01 20:22:41;;;;;;;339.40;130.30;;;;;;;5.16;61.23;101323.34;666532;1284;139262;-85
2023/03/01 20:37:46;;;;;;;523.10;212.80;;;;;;;5.25;61.04;101332.81;667137;1278;139066;-86
2023/03/01 20:52:53;;;;;;;491.10;191.00;;;;;;;5.31;61.95;101335.79;668852;1273;139151;-85
2023/03/01 21:07:59;;;;;;;674.60;282.60;;;;;;;5.54;61.73;101337.98;667604;1270;139164;-85
2023/03/01 21:23:05;;;;;;;529.30;220.30;;;;;;;5.57;63.22;101325.49;665847;1292;139263;-85
2023/03/01 21:38:10;;;;;;;688.90;302.70;;;;;;;5.36;63.03;101326.02;671462;1276;139889;-86
2023/03/01 21:53:14;;;;;;;405.40;161.40;;;;;;;5.00;63.41;101335.40;669069;1262;139826;-84
2023/03/01 22:08:19;;;;;;;304.30;120.60;;;;;;;4.85;65.10;101332.44;670880;1267;138919;-84
2023/03/01 22:23:23;;;;;;;218.60;91.50;;;;;;;5.32;65.70;101331.08;670350;1262;139672;-83
2023/03/01 22:38:27;;;;;;;192.90;72.20;;;;;;;5.57;66.26;101321.67;670506;1262;138890;-85
2023/03/01 22:53:31;;;;;;;202.10;73.00;;;;;;;5.71;66.69;101323.23;669762;1259;138820;-84
2023/03/01 23:08:34;;;;;;;141.90;54.60;;;;;;;5.73;67.37;101323.48;673011;1262;139881;-85
2023/03/01 23:23:38;;;;;;;235.70;83.20;;;;;;;5.88;67.93;101317.88;669887;1263;138639;-86
2023/03/01 23:38:41;;;;;;;107.00;44.30;;;;;;;5.87;68.08;101319.84;672592;1259;139323;-86
2023/03/01 23:53:58;;;;;;;114.00;40.20;;;;;;;5.85;68.51;101334.14;674114;1263;139381;-86
